Time;durP1;ratioP1;P1;durP2;ratioP2;P2;SDS_P1;SDS_P2;PMS_P1;PMS_P2;Temp;Humidity;BMP_temperature;BMP_pressure;BME280_temperature;BME280_humidity;BME280_pressure;Samples;Min_cycle;Max_cycle;Signal;HPM_P1;HPM_P2
2021/01/25 00:01:52;;;;;;;42.92;20.92;;;0.40;99.90;;;;;;12472879;28;20048;-42
2021/01/25 00:07:53;;;;;;;42.72;21.75;;;0.40;99.90;;;;;;12486998;28;20087;-42
2021/01/25 00:13:54;;;;;;;42.15;22.05;;;0.40;99.90;;;;;;12505878;28;20091;-42
2021/01/25 00:19:56;;;;;;;42.47;20.90;;;0.50;99.90;;;;;;12500608;28;20037;-42
2021/01/25 00:25:57;;;;;;;41.70;19.88;;;0.50;99.90;;;;;;12479200;28;20083;-42
2021/01/25 00:31:58;;;;;;;40.65;21.33;;;0.50;99.90;;;;;;12488847;28;20443;-42
2021/01/25 00:38:00;;;;;;;39.95;21.75;;;0.50;99.90;;;;;;12481893;28;20072;-42
2021/01/25 00:44:01;;;;;;;39.42;19.60;;;0.50;99.90;;;;;;12476583;28;20135;-42
2021/01/25 00:50:04;;;;;;;37.90;18.00;;;0.50;99.90;;;;;;12503832;28;21250;-42
2021/01/25 00:56:06;;;;;;;32.17;18.20;;;0.50;99.90;;;;;;12503332;28;20048;-42
2021/01/25 01:02:07;;;;;;;29.10;16.27;;;0.50;99.90;;;;;;12495431;28;20152;-42
2021/01/25 01:08:08;;;;;;;29.50;16.10;;;0.50;99.90;;;;;;12480716;28;20438;-42
2021/01/25 01:14:10;;;;;;;27.67;15.90;;;0.50;99.90;;;;;;12476923;28;20144;-42
2021/01/25 01:20:12;;;;;;;27.15;15.82;;;0.40;99.90;;;;;;12451650;28;20064;-42
2021/01/25 01:26:19;;;;;;;28.30;15.13;;;0.40;99.90;;;;;;12486221;28;20375;-42
2021/01/25 01:32:20;;;;;;;33.30;15.07;;;0.40;99.90;;;;;;12471707;28;20057;-42
2021/01/25 01:38:22;;;;;;;30.05;14.90;;;0.40;99.90;;;;;;12461198;28;20045;-42
2021/01/25 01:44:23;;;;;;;28.50;15.10;;;0.40;99.90;;;;;;12471495;28;21546;-42
2021/01/25 01:50:25;;;;;;;29.45;16.67;;;0.20;99.90;;;;;;12445877;28;20497;-42
2021/01/25 01:56:27;;;;;;;30.77;17.23;;;0.10;99.90;;;;;;12442683;28;20076;-42
2021/01/25 02:02:28;;;;;;;31.98;17.38;;;0.00;99.90;;;;;;12447845;28;20059;-42
2021/01/25 02:08:31;;;;;;;34.80;18.98;;;0.00;99.90;;;;;;12445399;28;20053;-42
2021/01/25 02:14:34;;;;;;;35.38;18.73;;;-0.10;99.90;;;;;;12415154;28;20060;-42
2021/01/25 02:20:45;;;;;;;34.50;18.35;;;-0.20;99.90;;;;;;12401094;28;20142;-42
2021/01/25 02:27:15;;;;;;;32.83;18.33;;;-0.20;99.90;;;;;;12437417;28;20065;-42
2021/01/25 02:33:18;;;;;;;34.63;17.88;;;-0.40;99.90;;;;;;12444932;28;20045;-42
2021/01/25 02:39:20;;;;;;;36.35;18.08;;;-0.50;99.90;;;;;;12438766;28;20057;-42
2021/01/25 02:45:23;;;;;;;39.63;18.92;;;-0.60;99.90;;;;;;12428590;28;20529;-42
2021/01/25 02:51:24;;;;;;;43.20;19.95;;;-0.60;99.90;;;;;;12440023;28;20055;-42
2021/01/25 02:57:25;;;;;;;35.95;19.05;;;-0.50;99.90;;;;;;12473694;28;20048;-42
2021/01/25 03:03:29;;;;;;;31.30;17.92;;;-0.60;99.90;;;;;;12474897;28;20041;-42
2021/01/25 03:09:32;;;;;;;31.08;18.33;;;-0.60;99.90;;;;;;12480984;28;20044;-42
2021/01/25 03:15:36;;;;;;;42.25;19.85;;;-0.60;99.90;;;;;;12489636;28;20083;-42
2021/01/25 03:21:49;;;;;;;33.75;17.80;;;-0.70;99.90;;;;;;12465361;28;20128;-42
2021/01/25 03:27:50;;;;;;;35.92;19.08;;;-0.70;99.90;;;;;;12467038;28;20102;-41
2021/01/25 03:33:51;;;;;;;33.80;17.98;;;-0.60;99.90;;;;;;12491192;28;21123;-42
2021/01/25 03:39:53;;;;;;;30.30;18.05;;;-0.60;99.90;;;;;;12481618;28;20127;-42
2021/01/25 03:45:54;;;;;;;38.50;19.60;;;-0.70;99.90;;;;;;12460674;28;20108;-42
2021/01/25 03:51:55;;;;;;;37.97;19.40;;;-0.70;99.90;;;;;;12452045;28;20105;-42
2021/01/25 03:57:57;;;;;;;36.40;20.67;;;-0.70;99.90;;;;;;12442413;28;20059;-42
2021/01/25 04:03:58;;;;;;;38.80;20.52;;;-0.70;99.90;;;;;;12459493;28;20052;-42
2021/01/25 04:10:00;;;;;;;40.30;21.00;;;-0.70;99.90;;;;;;12454425;28;20060;-42
2021/01/25 04:16:01;;;;;;;47.53;23.15;;;-0.70;99.90;;;;;;12486955;28;20231;-42
2021/01/25 04:22:02;;;;;;;87.82;27.88;;;-0.80;99.90;;;;;;12486441;28;20048;-42
2021/01/25 04:28:04;;;;;;;65.47;24.33;;;-0.70;99.90;;;;;;12475055;28;20061;-42
2021/01/25 04:34:06;;;;;;;65.13;26.70;;;-0.80;99.90;;;;;;12487906;28;20053;-42
2021/01/25 04:40:11;;;;;;;62.67;26.52;;;-0.90;99.90;;;;;;12422492;28;20045;-42
2021/01/25 04:46:13;;;;;;;54.45;25.90;;;-0.90;99.90;;;;;;12470421;28;20090;-42
2021/01/25 04:52:16;;;;;;;61.35;27.27;;;-0.80;99.90;;;;;;12441287;28;20367;-42
2021/01/25 04:58:18;;;;;;;59.95;26.85;;;-0.80;99.90;;;;;;12480097;28;20037;-41
2021/01/25 05:04:19;;;;;;;56.33;25.92;;;-0.80;99.90;;;;;;12479413;28;20111;-42
2021/01/25 05:10:23;;;;;;;52.72;26.13;;;-0.80;99.90;;;;;;12481163;28;20648;-42
2021/01/25 05:16:24;;;;;;;52.25;24.95;;;-0.80;99.90;;;;;;12492144;28;20465;-42
2021/01/25 05:22:27;;;;;;;51.33;25.48;;;-0.80;99.90;;;;;;12467310;28;20413;-42
2021/01/25 05:28:30;;;;;;;50.58;24.77;;;-0.80;99.90;;;;;;12484756;28;20110;-42
2021/01/25 05:34:31;;;;;;;49.38;22.60;;;-0.90;99.90;;;;;;12473339;28;20106;-42
2021/01/25 05:40:39;;;;;;;45.72;21.85;;;-1.10;99.90;;;;;;12469606;28;20052;-42
2021/01/25 05:46:40;;;;;;;46.97;22.63;;;-1.20;99.90;;;;;;12494440;28;20645;-42
2021/01/25 05:52:42;;;;;;;46.33;22.35;;;-1.10;99.90;;;;;;12498833;28;20139;-42
2021/01/25 05:58:44;;;;;;;45.60;22.17;;;-1.00;99.90;;;;;;12481463;28;20074;-42
2021/01/25 06:04:46;;;;;;;42.10;20.02;;;-1.00;99.90;;;;;;12489530;28;20057;-42
2021/01/25 06:11:08;;;;;;;39.80;19.73;;;-1.00;99.90;;;;;;12493742;28;20113;-42
2021/01/25 06:17:11;;;;;;;42.20;19.88;;;-1.00;99.90;;;;;;12499948;28;20092;-42
2021/01/25 06:23:14;;;;;;;36.83;19.83;;;-1.00;99.90;;;;;;12495282;28;20045;-42
2021/01/25 06:29:20;;;;;;;41.75;21.30;;;-0.80;99.90;;;;;;12500151;28;20045;-42
2021/01/25 06:35:21;;;;;;;39.88;19.27;;;-0.80;99.90;;;;;;12497373;28;20111;-42
2021/01/25 06:41:23;;;;;;;37.50;19.42;;;-0.90;99.90;;;;;;12484298;28;20697;-42
2021/01/25 06:47:24;;;;;;;38.15;19.85;;;-1.00;99.90;;;;;;12496787;28;20052;-42
2021/01/25 06:53:28;;;;;;;35.85;19.17;;;-1.00;99.90;;;;;;12507810;28;20041;-42
2021/01/25 06:59:32;;;;;;;36.65;19.65;;;-1.00;99.90;;;;;;12489122;28;20084;-42
2021/01/25 07:05:37;;;;;;;43.55;20.60;;;-1.10;99.90;;;;;;12488237;28;20052;-42
2021/01/25 07:11:39;;;;;;;41.92;20.83;;;-1.20;99.90;;;;;;12497449;28;20124;-42
2021/01/25 07:17:40;;;;;;;41.40;19.02;;;-1.10;99.90;;;;;;12501155;28;20106;-42
2021/01/25 07:23:43;;;;;;;38.05;19.40;;;-1.10;99.90;;;;;;12497271;28;20516;-42
2021/01/25 07:29:45;;;;;;;40.35;20.65;;;-1.10;99.90;;;;;;12496477;28;20060;-42
2021/01/25 07:35:48;;;;;;;41.13;19.92;;;-1.10;99.90;;;;;;12466832;28;20044;-42
2021/01/25 07:41:49;;;;;;;38.83;20.45;;;-1.10;99.90;;;;;;12489371;28;20436;-42
2021/01/25 07:47:51;;;;;;;47.60;22.10;;;-1.00;99.90;;;;;;12496546;28;20481;-42
2021/01/25 07:53:54;;;;;;;46.03;22.48;;;-0.90;99.90;;;;;;12505510;28;20045;-42
2021/01/25 07:59:56;;;;;;;45.42;22.58;;;-0.80;99.90;;;;;;12504849;28;20511;-42
2021/01/25 08:06:05;;;;;;;40.63;21.10;;;-0.80;99.90;;;;;;12475162;28;21933;-42
2021/01/25 08:12:07;;;;;;;40.28;20.25;;;-0.70;99.90;;;;;;12495694;28;20084;-42
2021/01/25 08:18:12;;;;;;;46.00;22.67;;;-0.70;99.90;;;;;;12498496;28;20053;-42
2021/01/25 08:24:14;;;;;;;43.35;22.75;;;-0.60;99.90;;;;;;12487004;28;20056;-42
2021/01/25 08:30:22;;;;;;;46.00;22.60;;;-0.50;99.90;;;;;;12508591;28;20155;-42
2021/01/25 08:36:34;;;;;;;39.85;21.75;;;-0.40;99.90;;;;;;12479354;28;20083;-42
2021/01/25 08:42:35;;;;;;;41.53;22.02;;;-0.20;99.90;;;;;;12487955;28;20041;-42
2021/01/25 08:48:37;;;;;;;39.75;21.85;;;-0.20;99.90;;;;;;12484609;28;20103;-42
2021/01/25 08:54:40;;;;;;;37.90;20.83;;;-0.20;99.90;;;;;;12506614;28;20144;-42
2021/01/25 09:00:42;;;;;;;37.28;19.90;;;0.00;99.90;;;;;;12489861;28;20124;-42
2021/01/25 09:06:52;;;;;;;34.17;21.02;;;0.40;99.90;;;;;;12499971;28;20068;-42
2021/01/25 09:12:54;;;;;;;36.75;20.58;;;0.70;99.90;;;;;;12492989;28;20455;-42
2021/01/25 09:18:55;;;;;;;39.50;22.63;;;1.00;99.90;;;;;;12492684;28;20668;-42
2021/01/25 09:24:57;;;;;;;39.35;22.83;;;0.90;99.90;;;;;;12497717;28;20049;-42
2021/01/25 09:30:58;;;;;;;41.80;22.35;;;1.10;99.90;;;;;;12499573;28;20057;-42
2021/01/25 09:37:02;;;;;;;47.33;23.73;;;0.90;99.90;;;;;;12494320;28;20052;-42
2021/01/25 09:43:04;;;;;;;48.72;26.67;;;0.70;99.90;;;;;;12467967;28;20056;-42
2021/01/25 09:49:05;;;;;;;46.30;24.35;;;0.80;99.90;;;;;;12504515;28;20501;-42
2021/01/25 09:55:07;;;;;;;42.38;22.92;;;0.80;99.90;;;;;;12495726;28;20109;-42
2021/01/25 10:01:09;;;;;;;42.72;22.17;;;0.60;99.90;;;;;;12504829;28;20053;-42
2021/01/25 10:07:11;;;;;;;36.47;21.45;;;0.70;99.90;;;;;;12490130;28;20056;-42
2021/01/25 10:13:12;;;;;;;35.40;20.13;;;1.20;99.90;;;;;;12500916;28;20048;-42
2021/01/25 10:19:14;;;;;;;32.95;18.92;;;1.50;99.90;;;;;;12479263;28;20048;-42
2021/01/25 10:25:15;;;;;;;29.98;17.38;;;1.60;99.90;;;;;;12485009;28;20757;-42
2021/01/25 10:31:17;;;;;;;26.85;16.38;;;1.90;99.90;;;;;;12481910;28;20139;-42
2021/01/25 10:37:18;;;;;;;24.75;14.75;;;2.20;99.90;;;;;;12490330;28;20106;-42
2021/01/25 10:43:20;;;;;;;23.45;13.30;;;2.80;99.90;;;;;;12489319;28;20057;-42
2021/01/25 10:49:22;;;;;;;21.83;13.50;;;2.90;99.90;;;;;;12499683;28;20106;-42
2021/01/25 10:55:23;;;;;;;22.75;13.63;;;3.00;99.90;;;;;;12502576;28;20521;-42
2021/01/25 11:01:25;;;;;;;23.52;12.85;;;2.90;99.90;;;;;;12486901;28;20045;-41
2021/01/25 11:07:26;;;;;;;22.02;13.38;;;3.00;99.90;;;;;;12480446;28;20069;-42
2021/01/25 11:13:27;;;;;;;25.40;13.60;;;2.80;99.90;;;;;;12465702;28;20118;-42
2021/01/25 11:19:29;;;;;;;22.80;12.38;;;2.90;99.90;;;;;;12503877;28;20136;-42
2021/01/25 11:25:30;;;;;;;21.80;13.15;;;3.20;99.90;;;;;;12480881;28;20063;-42
2021/01/25 11:31:32;;;;;;;25.13;13.60;;;3.50;99.90;;;;;;12503541;28;20041;-42
2021/01/25 11:37:33;;;;;;;23.15;13.38;;;3.70;99.90;;;;;;12481626;28;20432;-42
2021/01/25 11:43:35;;;;;;;20.02;12.52;;;3.50;99.90;;;;;;12485505;28;20131;-42
2021/01/25 11:49:37;;;;;;;19.95;12.55;;;3.40;99.90;;;;;;12496736;28;20680;-42
2021/01/25 11:55:38;;;;;;;21.23;13.45;;;3.40;99.90;;;;;;12512770;28;20082;-42
2021/01/25 12:01:41;;;;;;;26.98;14.40;;;3.40;99.90;;;;;;12469912;28;20049;-42
2021/01/25 12:07:42;;;;;;;24.02;14.13;;;3.30;99.90;;;;;;12491360;28;20045;-42
2021/01/25 12:13:43;;;;;;;22.70;13.68;;;3.20;99.90;;;;;;12510639;28;20052;-42
2021/01/25 12:19:45;;;;;;;21.20;11.98;;;3.20;99.90;;;;;;12508190;28;20139;-42
2021/01/25 12:25:46;;;;;;;24.63;14.40;;;3.10;99.90;;;;;;12499116;28;20049;-42
2021/01/25 12:31:48;;;;;;;21.88;12.65;;;3.00;99.90;;;;;;12503239;28;20139;-42
2021/01/25 12:37:53;;;;;;;23.75;14.45;;;2.80;99.90;;;;;;12485611;28;20044;-42
2021/01/25 12:43:55;;;;;;;23.20;13.40;;;2.80;99.90;;;;;;12485660;28;20478;-42
2021/01/25 12:49:56;;;;;;;26.58;14.20;;;2.80;99.90;;;;;;12501799;28;20153;-42
2021/01/25 12:55:57;;;;;;;19.05;12.40;;;3.10;99.90;;;;;;12489678;28;20140;-41
2021/01/25 13:01:59;;;;;;;21.25;12.15;;;3.20;99.90;;;;;;12492988;28;20048;-42
2021/01/25 13:08:01;;;;;;;19.65;11.73;;;3.40;99.90;;;;;;12486114;28;20074;-40
2021/01/25 13:14:03;;;;;;;18.33;10.48;;;3.50;99.90;;;;;;12493399;28;20106;-42
2021/01/25 13:20:05;;;;;;;18.45;10.70;;;3.30;99.90;;;;;;12490308;28;20191;-42
2021/01/25 13:26:07;;;;;;;18.02;9.85;;;3.10;99.90;;;;;;12512717;28;20056;-42
2021/01/25 13:32:09;;;;;;;19.67;10.32;;;3.20;99.90;;;;;;12496935;28;20045;-42
2021/01/25 13:38:10;;;;;;;15.48;9.82;;;3.30;99.90;;;;;;12494975;28;20052;-42
2021/01/25 13:44:12;;;;;;;17.15;9.45;;;3.10;99.90;;;;;;12475396;28;20052;-42
2021/01/25 13:50:15;;;;;;;16.23;9.77;;;3.10;99.90;;;;;;12494650;28;20539;-42
2021/01/25 13:56:16;;;;;;;16.92;9.73;;;3.20;99.90;;;;;;12502726;28;20077;-42
2021/01/25 14:02:19;;;;;;;20.85;11.38;;;3.10;99.90;;;;;;12474772;28;20412;-42
2021/01/25 14:08:20;;;;;;;16.83;9.90;;;3.10;99.90;;;;;;12483131;28;20481;-42
2021/01/25 14:14:23;;;;;;;16.13;9.32;;;3.00;99.90;;;;;;12501460;28;20049;-42
2021/01/25 14:20:25;;;;;;;15.40;9.32;;;3.10;99.90;;;;;;12496849;28;20056;-42
2021/01/25 14:26:26;;;;;;;16.00;8.98;;;2.90;99.90;;;;;;12498957;28;20094;-42
2021/01/25 14:32:27;;;;;;;14.75;8.85;;;2.90;99.90;;;;;;12496756;28;20427;-42
2021/01/25 14:38:29;;;;;;;16.00;8.60;;;2.70;99.90;;;;;;12491630;28;20135;-42
2021/01/25 14:44:31;;;;;;;20.92;9.77;;;2.80;99.90;;;;;;12489062;28;20106;-42
2021/01/25 14:50:32;;;;;;;14.27;8.95;;;2.70;99.90;;;;;;12489465;28;20049;-42
2021/01/25 14:56:33;;;;;;;16.30;9.05;;;2.80;99.90;;;;;;12488649;28;20102;-42
2021/01/25 15:02:35;;;;;;;18.70;9.95;;;2.80;99.90;;;;;;12506086;28;20186;-42
2021/01/25 15:08:36;;;;;;;21.55;10.40;;;2.40;99.90;;;;;;12488727;28;20055;-42
2021/01/25 15:14:38;;;;;;;19.55;10.90;;;2.20;99.90;;;;;;12512588;28;20048;-42
2021/01/25 15:20:39;;;;;;;19.40;10.65;;;1.90;99.90;;;;;;12501797;28;20124;-42
2021/01/25 15:26:41;;;;;;;18.92;11.10;;;1.70;99.90;;;;;;12501589;28;20103;-42
2021/01/25 15:32:42;;;;;;;23.30;11.18;;;1.60;99.90;;;;;;12499423;28;20049;-42
2021/01/25 15:38:44;;;;;;;21.98;10.32;;;1.40;99.90;;;;;;12491180;28;20509;-42
2021/01/25 15:44:45;;;;;;;21.27;11.10;;;1.20;99.90;;;;;;12494550;28;20102;-42
2021/01/25 15:50:46;;;;;;;20.63;10.77;;;1.10;99.90;;;;;;12491047;28;20049;-42
2021/01/25 15:56:48;;;;;;;22.13;11.00;;;0.90;99.90;;;;;;12507390;28;20760;-42
2021/01/25 16:02:50;;;;;;;19.65;11.13;;;0.80;99.90;;;;;;12504592;28;20215;-42
2021/01/25 16:08:51;;;;;;;22.45;10.85;;;0.80;99.90;;;;;;12481593;28;20136;-42
2021/01/25 16:14:52;;;;;;;21.33;11.90;;;0.80;99.90;;;;;;12515368;28;20155;-42
2021/01/25 16:20:55;;;;;;;20.35;11.15;;;0.80;99.90;;;;;;12490902;28;20117;-42
2021/01/25 16:26:56;;;;;;;21.70;11.85;;;0.70;99.90;;;;;;12497230;28;20057;-42
2021/01/25 16:32:58;;;;;;;20.92;12.77;;;0.70;99.90;;;;;;12500556;28;20057;-42
2021/01/25 16:38:59;;;;;;;22.92;12.93;;;0.70;99.90;;;;;;12507071;28;20091;-42
2021/01/25 16:45:00;;;;;;;26.17;13.63;;;0.70;99.90;;;;;;12488789;28;20102;-42
2021/01/25 16:51:02;;;;;;;30.00;15.60;;;0.70;99.90;;;;;;12506254;28;20056;-42
2021/01/25 16:57:04;;;;;;;28.92;16.48;;;0.70;99.90;;;;;;12500053;28;20049;-42
2021/01/25 17:03:05;;;;;;;26.90;16.15;;;0.70;99.90;;;;;;12504233;28;20080;-42
2021/01/25 17:09:07;;;;;;;29.08;14.52;;;0.70;99.90;;;;;;12501794;28;20049;-42
2021/01/25 17:15:10;;;;;;;21.92;13.05;;;0.70;99.90;;;;;;12498318;28;20049;-42
2021/01/25 17:21:12;;;;;;;27.98;13.70;;;0.70;99.90;;;;;;12494859;28;20053;-42
2021/01/25 17:27:15;;;;;;;23.02;12.55;;;0.70;99.90;;;;;;12511538;28;20069;-42
2021/01/25 17:33:18;;;;;;;21.15;12.05;;;0.70;99.90;;;;;;12486581;28;20056;-42
2021/01/25 17:39:23;;;;;;;21.67;12.13;;;0.80;99.90;;;;;;12505535;28;20099;-42
2021/01/25 17:45:25;;;;;;;22.63;12.90;;;0.80;99.90;;;;;;12491523;28;20049;-42
2021/01/25 17:51:27;;;;;;;24.73;14.10;;;0.60;99.90;;;;;;12494683;28;20055;-42
2021/01/25 17:57:29;;;;;;;26.23;14.27;;;0.60;99.90;;;;;;12502393;28;20386;-42
2021/01/25 18:03:30;;;;;;;23.20;13.45;;;0.60;99.90;;;;;;12499816;28;20055;-42
2021/01/25 18:09:32;;;;;;;22.85;13.05;;;0.50;99.90;;;;;;12497600;28;20045;-42
2021/01/25 18:15:34;;;;;;;22.30;12.90;;;0.60;99.90;;;;;;12499061;28;20466;-41
2021/01/25 18:21:36;;;;;;;26.30;14.88;;;0.60;99.90;;;;;;12468498;28;20049;-42
2021/01/25 18:27:38;;;;;;;21.67;13.02;;;0.60;99.90;;;;;;12497603;28;20500;-42
2021/01/25 18:33:42;;;;;;;23.10;14.17;;;0.60;99.90;;;;;;12481681;28;20076;-42
2021/01/25 18:39:43;;;;;;;27.63;14.95;;;0.60;99.90;;;;;;12481613;28;20071;-42
2021/01/25 18:45:45;;;;;;;31.27;16.65;;;0.60;99.90;;;;;;12488598;28;20137;-42
2021/01/25 18:51:46;;;;;;;29.45;16.13;;;0.60;99.90;;;;;;12504985;28;20139;-42
2021/01/25 18:57:48;;;;;;;25.50;14.45;;;0.70;99.90;;;;;;12479250;28;20056;-42
2021/01/25 19:03:49;;;;;;;27.17;14.23;;;0.80;99.90;;;;;;12486991;28;20160;-42
2021/01/25 19:09:51;;;;;;;29.20;15.30;;;0.80;99.90;;;;;;12491413;28;20110;-42
2021/01/25 19:15:52;;;;;;;24.52;14.38;;;0.80;99.90;;;;;;12500229;28;20053;-42
2021/01/25 19:21:53;;;;;;;27.92;15.23;;;0.70;99.90;;;;;;12480538;28;20130;-42
2021/01/25 19:27:55;;;;;;;22.42;14.57;;;0.80;99.90;;;;;;12491925;28;20098;-42
2021/01/25 19:33:57;;;;;;;25.75;14.25;;;0.80;99.90;;;;;;12480707;28;20106;-42
2021/01/25 19:39:58;;;;;;;24.30;14.95;;;0.80;99.90;;;;;;12487965;28;20456;-42
2021/01/25 19:46:00;;;;;;;25.58;14.65;;;0.80;99.90;;;;;;12486363;28;20072;-42
2021/01/25 19:52:02;;;;;;;24.30;14.98;;;0.90;99.90;;;;;;12496608;28;20081;-42
2021/01/25 19:58:04;;;;;;;24.90;13.68;;;0.90;99.90;;;;;;12505583;28;20072;-42
2021/01/25 20:04:06;;;;;;;22.30;14.25;;;1.00;99.90;;;;;;12500600;28;20049;-42
2021/01/25 20:10:07;;;;;;;24.40;13.93;;;1.00;99.90;;;;;;12493467;28;20076;-42
2021/01/25 20:16:15;;;;;;;20.90;13.82;;;1.10;99.90;;;;;;12499888;28;20056;-42
2021/01/25 20:22:16;;;;;;;26.77;14.38;;;1.10;99.90;;;;;;12489463;28;20172;-42
2021/01/25 20:28:21;;;;;;;25.42;14.68;;;0.90;99.90;;;;;;12505906;28;20057;-42
2021/01/25 20:34:22;;;;;;;;;;;1.00;99.90;;;;;;12508894;28;20386;-42
2021/01/25 20:40:27;;;;;;;21.80;13.75;;;0.90;99.90;;;;;;12482530;28;20570;-42
2021/01/25 20:46:28;;;;;;;23.80;14.82;;;0.90;99.90;;;;;;12488898;28;20677;-42
2021/01/25 20:52:30;;;;;;;25.67;14.05;;;0.90;99.90;;;;;;12492586;28;20049;-42
2021/01/25 20:58:31;;;;;;;26.75;15.80;;;0.90;99.90;;;;;;12490352;28;20082;-42
2021/01/25 21:04:32;;;;;;;25.02;14.27;;;0.90;99.90;;;;;;12505450;28;20037;-42
2021/01/25 21:10:34;;;;;;;24.05;14.38;;;1.00;99.90;;;;;;12501035;28;20464;-42
2021/01/25 21:16:36;;;;;;;23.17;14.77;;;1.20;99.90;;;;;;12504920;28;20041;-42
2021/01/25 21:22:39;;;;;;;23.10;14.70;;;1.10;99.90;;;;;;12484700;28;20056;-42
2021/01/25 21:28:40;;;;;;;27.63;17.00;;;1.20;99.90;;;;;;12506112;28;20437;-42
2021/01/25 21:34:41;;;;;;;26.35;16.27;;;1.20;99.90;;;;;;12501258;28;20048;-42
2021/01/25 21:40:44;;;;;;;28.08;17.05;;;1.20;99.90;;;;;;12499998;28;20049;-42
2021/01/25 21:46:46;;;;;;;28.23;16.85;;;1.10;99.90;;;;;;12505604;28;20059;-42
2021/01/25 21:52:48;;;;;;;26.10;16.38;;;1.20;99.90;;;;;;12495961;28;20058;-42
2021/01/25 21:58:49;;;;;;;28.52;16.85;;;1.20;99.90;;;;;;12496184;28;20132;-42
2021/01/25 22:04:50;;;;;;;29.20;17.10;;;1.20;99.90;;;;;;12496561;28;21269;-42
2021/01/25 22:10:51;;;;;;;25.83;16.33;;;1.10;99.90;;;;;;12503963;28;20052;-42
2021/01/25 22:16:53;;;;;;;30.80;18.38;;;1.10;99.90;;;;;;12489415;28;20504;-42
2021/01/25 22:22:55;;;;;;;30.23;18.50;;;1.10;99.90;;;;;;12491162;28;20592;-42
2021/01/25 22:28:57;;;;;;;32.35;19.08;;;1.10;99.90;;;;;;12493437;28;20583;-42
2021/01/25 22:34:58;;;;;;;29.33;18.95;;;1.10;99.90;;;;;;12500789;28;20048;-41
2021/01/25 22:40:59;;;;;;;27.35;15.45;;;1.10;99.90;;;;;;12485128;28;20557;-42
2021/01/25 22:47:01;;;;;;;25.33;15.43;;;1.00;99.90;;;;;;12480184;28;20711;-42
2021/01/25 22:53:02;;;;;;;30.05;16.75;;;0.90;99.90;;;;;;12499326;28;20126;-42
2021/01/25 22:59:04;;;;;;;33.40;19.50;;;0.80;99.90;;;;;;12497602;28;20199;-41
2021/01/25 23:05:06;;;;;;;30.75;19.17;;;0.90;99.90;;;;;;12486540;28;20099;-42
2021/01/25 23:11:08;;;;;;;32.97;18.52;;;0.90;99.90;;;;;;12483583;28;20052;-42
2021/01/25 23:17:09;;;;;;;40.80;22.77;;;0.90;99.90;;;;;;12496274;28;20128;-42
2021/01/25 23:23:32;;;;;;;46.47;25.02;;;0.90;99.90;;;;;;12496726;28;20053;-42
2021/01/25 23:29:34;;;;;;;48.95;26.88;;;0.90;99.90;;;;;;12510134;28;20140;-42
2021/01/25 23:35:36;;;;;;;54.45;29.95;;;0.90;99.90;;;;;;12482372;28;20544;-41
2021/01/25 23:41:37;;;;;;;53.25;29.20;;;0.90;99.90;;;;;;12505235;28;20040;-42
2021/01/25 23:47:38;;;;;;;56.47;30.77;;;0.90;99.90;;;;;;12491987;28;20106;-42
2021/01/25 23:53:41;;;;;;;55.80;29.80;;;0.90;99.90;;;;;;12490181;28;20049;-42
2021/01/25 23:59:44;;;;;;;45.80;26.67;;;0.90;99.90;;;;;;12488779;28;21223;-42
